createdAt,value
2022-11-12T06:04:56.535Z,1.83
2022-11-12T06:10:20.672Z,2.10
2022-11-12T06:15:42.506Z,2.30
2022-11-12T06:21:23.512Z,1.80
2022-11-12T06:26:45.271Z,1.52
2022-11-12T06:32:06.837Z,1.75
2022-11-12T06:37:29.951Z,1.75
2022-11-12T06:42:57.986Z,1.77
2022-11-12T06:48:20.014Z,1.40
2022-11-12T06:53:43.007Z,1.27
2022-11-12T06:59:04.757Z,1.37
2022-11-12T07:04:26.452Z,1.35
2022-11-12T07:09:49.519Z,1.17
2022-11-12T07:15:12.062Z,1.40
2022-11-12T07:20:33.702Z,1.10
2022-11-12T07:26:01.933Z,1.15
2022-11-12T07:31:25.855Z,0.88
2022-11-12T07:36:51.581Z,1.00
2022-11-12T07:42:14.492Z,0.85
2022-11-12T07:47:36.699Z,1.45
2022-11-12T07:53:00.068Z,1.12
2022-11-12T07:58:23.209Z,1.02
2022-11-12T08:03:45.175Z,1.45
2022-11-12T08:09:08.519Z,1.00
2022-11-12T08:14:31.856Z,1.10
2022-11-12T08:19:55.354Z,1.42
2022-11-12T08:25:19.046Z,1.12
2022-11-12T08:30:42.432Z,1.30
2022-11-12T08:36:05.593Z,1.20
2022-11-12T08:41:27.568Z,1.42
2022-11-12T08:46:51.908Z,1.50
2022-11-12T08:52:13.456Z,1.77
2022-11-12T08:57:41.440Z,1.80
2022-11-12T09:03:05.410Z,1.35
2022-11-12T09:08:27.309Z,1.60
2022-11-12T09:13:49.432Z,1.65
2022-11-12T09:19:12.548Z,1.17
2022-11-12T09:24:34.484Z,1.52
2022-11-12T09:29:56.064Z,2.05
2022-11-12T09:35:19.305Z,1.95
2022-11-12T09:40:56.258Z,1.48
2022-11-12T09:46:34.648Z,2.12
2022-11-12T09:52:04.045Z,2.22
2022-11-12T09:57:25.819Z,2.12
2022-11-12T10:02:56.496Z,1.92
2022-11-12T10:08:38.376Z,2.10
2022-11-12T10:14:12.186Z,2.15
2022-11-12T10:19:46.027Z,1.92
2022-11-12T10:25:16.720Z,2.07
2022-11-12T10:30:38.552Z,1.92
2022-11-12T10:36:15.044Z,2.25
2022-11-12T10:41:38.243Z,2.35
2022-11-12T10:47:23.735Z,1.65
2022-11-12T10:52:57.034Z,1.60
2022-11-12T10:58:21.018Z,1.52
2022-11-12T11:03:48.830Z,1.85
2022-11-12T11:09:17.746Z,1.70
2022-11-12T11:14:40.744Z,1.52
2022-11-12T11:20:03.608Z,1.00
2022-11-12T11:25:28.929Z,1.33
2022-11-12T11:30:59.744Z,1.80
2022-11-12T11:36:30.932Z,1.42
2022-11-12T11:42:01.616Z,1.10
2022-11-12T11:47:59.418Z,0.77
2022-11-12T11:53:25.355Z,1.52
2022-11-12T11:59:26.675Z,1.65
2022-11-12T12:04:52.860Z,0.73
2022-11-12T12:10:24.776Z,0.70
2022-11-12T12:16:35.376Z,1.40
2022-11-12T12:22:01.913Z,0.90
2022-11-12T12:27:27.183Z,1.27
2022-11-12T12:32:56.882Z,1.42
2022-11-12T12:38:26.337Z,1.27
2022-11-12T12:43:53.839Z,1.45
2022-11-12T12:53:56.635Z,1.35
2022-11-12T12:59:21.952Z,0.85
2022-11-12T13:04:54.823Z,1.02
2022-11-12T13:10:48.497Z,1.55
2022-11-12T13:16:10.775Z,1.30
2022-11-12T13:21:32.826Z,1.17
2022-11-12T13:26:57.993Z,1.27
2022-11-12T13:32:43.014Z,1.30
2022-11-12T13:38:15.463Z,1.52
2022-11-12T13:43:41.376Z,1.02
2022-11-12T13:49:07.299Z,1.20
2022-11-12T13:54:35.509Z,1.10
2022-11-12T14:00:21.948Z,1.95
2022-11-12T14:05:49.699Z,0.85
2022-11-12T14:11:35.706Z,1.20
2022-11-12T14:17:09.917Z,1.30
2022-11-12T14:22:40.796Z,1.40
2022-11-12T14:28:02.582Z,1.20
2022-11-12T14:33:27.867Z,0.75
2022-11-12T14:38:53.355Z,1.33
2022-11-12T14:44:20.012Z,1.42
2022-11-12T14:49:45.364Z,1.52
2022-11-12T14:55:13.569Z,1.45
2022-11-12T15:00:42.252Z,1.33
2022-11-12T15:06:12.361Z,1.30
2022-11-12T15:11:37.104Z,2.58
2022-11-12T15:17:00.673Z,1.73
2022-11-12T15:22:24.260Z,1.20
2022-11-12T15:27:46.370Z,1.60
2022-11-12T15:33:09.861Z,1.67
2022-11-12T15:38:37.844Z,1.62
2022-11-12T15:43:59.891Z,1.35
2022-11-12T15:49:22.098Z,1.77
2022-11-12T15:54:45.076Z,2.17
2022-11-12T16:00:14.627Z,1.37
2022-11-12T16:05:36.779Z,1.20
2022-11-12T16:11:01.698Z,1.23
2022-11-12T16:21:45.144Z,1.20
2022-11-12T16:27:08.795Z,1.75
2022-11-12T16:32:30.450Z,1.65
2022-11-12T16:37:54.675Z,1.52
2022-11-12T16:43:18.391Z,1.97
2022-11-12T16:48:40.457Z,2.00
2022-11-12T16:54:02.508Z,1.70
2022-11-12T16:59:25.519Z,2.10
2022-11-12T17:04:47.438Z,2.15
2022-11-12T17:10:10.243Z,1.73
2022-11-12T17:15:33.239Z,1.67
2022-11-12T17:20:54.958Z,1.87
2022-11-12T17:26:21.241Z,2.10
2022-11-12T17:31:44.270Z,2.13
2022-11-12T17:37:06.097Z,2.25
2022-11-12T17:42:27.804Z,2.30
2022-11-12T17:47:50.783Z,1.98
2022-11-12T17:53:12.409Z,2.35
2022-11-12T17:58:34.158Z,1.77
2022-11-12T18:03:58.150Z,2.25
2022-11-12T18:09:19.959Z,2.53
2022-11-12T18:14:41.779Z,1.85
2022-11-12T18:20:05.488Z,2.47
2022-11-12T18:25:27.148Z,2.00
2022-11-12T18:30:48.960Z,2.22
2022-11-12T18:36:14.516Z,2.45
2022-11-12T18:41:36.458Z,2.45
2022-11-12T18:46:58.368Z,2.25
2022-11-12T18:52:21.295Z,1.55
2022-11-12T18:57:43.205Z,1.90
2022-11-12T19:03:05.083Z,2.10
2022-11-12T19:08:28.483Z,2.37
2022-11-12T19:13:52.322Z,1.98
2022-11-12T19:19:15.160Z,2.50
2022-11-12T19:24:38.311Z,2.37
2022-11-12T19:30:03.170Z,2.40
2022-11-12T19:35:25.636Z,2.90
2022-11-12T19:40:48.855Z,3.10
2022-11-12T19:46:11.216Z,2.87
2022-11-12T19:51:33.247Z,2.33
2022-11-12T19:56:56.223Z,2.60
2022-11-12T20:02:18.266Z,2.70
2022-11-12T20:07:39.893Z,2.87
2022-11-12T20:13:03.404Z,3.15
2022-11-12T20:18:25.992Z,3.08
2022-11-12T20:23:48.013Z,2.78
2022-11-12T20:29:11.231Z,2.28
2022-11-12T20:34:32.995Z,2.75
2022-11-12T20:39:54.654Z,3.05
2022-11-12T20:45:17.875Z,2.12
2022-11-12T20:50:41.765Z,2.28
2022-11-12T20:56:16.159Z,2.20
2022-11-12T21:01:40.645Z,2.85
2022-11-12T21:07:05.304Z,3.33
2022-11-12T21:12:27.519Z,2.53
2022-11-12T21:17:53.491Z,2.25
2022-11-12T21:23:15.535Z,2.80
2022-11-12T21:28:38.432Z,2.12
2022-11-12T21:34:04.385Z,2.20
2022-11-12T21:39:26.283Z,3.40
2022-11-12T21:44:47.928Z,2.53
2022-11-12T21:50:11.356Z,2.33
2022-11-12T21:55:33.105Z,2.80
2022-11-12T22:00:54.546Z,2.15
2022-11-12T22:06:18.613Z,2.70
2022-11-12T22:11:40.420Z,2.93
2022-11-12T22:17:02.051Z,2.22
2022-11-12T22:22:25.483Z,1.80
2022-11-12T22:27:47.626Z,1.50
2022-11-12T22:33:09.534Z,2.10
2022-11-12T22:38:37.135Z,2.40
2022-11-12T22:44:00.880Z,2.15
2022-11-12T22:49:22.405Z,3.03
2022-11-12T22:54:45.447Z,2.22
2022-11-12T23:00:10.639Z,2.75
2022-11-12T23:05:32.322Z,2.80
2022-11-12T23:10:55.447Z,1.77
2022-11-12T23:16:19.533Z,2.55
2022-11-12T23:21:41.409Z,2.08
2022-11-12T23:27:04.419Z,1.92
